sensor_id;sensor_type;location;lat;lon;timestamp;temperature;humidity
11284;DHT22;5698;47.332;11.180;2023-04-10T00:01:42;-0.80;99.90
11284;DHT22;5698;47.332;11.180;2023-04-10T00:04:09;-0.70;99.90
11284;DHT22;5698;47.332;11.180;2023-04-10T00:06:37;-0.50;99.90
11284;DHT22;5698;47.332;11.180;2023-04-10T00:09:05;-0.50;99.90
11284;DHT22;5698;47.332;11.180;2023-04-10T00:11:32;-0.40;99.90
11284;DHT22;5698;47.332;11.180;2023-04-10T00:13:59;-0.50;99.90
11284;DHT22;5698;47.332;11.180;2023-04-10T00:16:26;-0.50;99.90
11284;DHT22;5698;47.332;11.180;2023-04-10T00:18:53;-0.70;99.90
11284;DHT22;5698;47.332;11.180;2023-04-10T00:21:20;-0.70;99.90
11284;DHT22;5698;47.332;11.180;2023-04-10T00:23:48;-0.70;99.90
11284;DHT22;5698;47.332;11.180;2023-04-10T00:26:15;-0.60;99.90
11284;DHT22;5698;47.332;11.180;2023-04-10T00:28:43;-0.60;99.90
11284;DHT22;5698;47.332;11.180;2023-04-10T00:31:10;-0.70;99.90
11284;DHT22;5698;47.332;11.180;2023-04-10T00:33:37;-0.80;99.90
11284;DHT22;5698;47.332;11.180;2023-04-10T00:36:04;-1.10;99.90
11284;DHT22;5698;47.332;11.180;2023-04-10T00:38:31;-1.20;99.90
11284;DHT22;5698;47.332;11.180;2023-04-10T00:40:59;-1.10;99.90
11284;DHT22;5698;47.332;11.180;2023-04-10T00:43:26;-1.20;99.90
11284;DHT22;5698;47.332;11.180;2023-04-10T00:45:53;-1.10;99.90
11284;DHT22;5698;47.332;11.180;2023-04-10T00:48:20;-1.10;99.90
11284;DHT22;5698;47.332;11.180;2023-04-10T00:50:48;-1.10;99.90
11284;DHT22;5698;47.332;11.180;2023-04-10T00:53:16;-1.10;99.90
11284;DHT22;5698;47.332;11.180;2023-04-10T00:55:43;-1.20;99.90
11284;DHT22;5698;47.332;11.180;2023-04-10T00:58:11;-1.20;99.90
11284;DHT22;5698;47.332;11.180;2023-04-10T01:00:39;-1.20;99.90
11284;DHT22;5698;47.332;11.180;2023-04-10T01:03:06;-1.10;99.90
11284;DHT22;5698;47.332;11.180;2023-04-10T01:05:37;-1.10;99.90
11284;DHT22;5698;47.332;11.180;2023-04-10T01:08:12;-1.10;99.90
11284;DHT22;5698;47.332;11.180;2023-04-10T01:11:01;-1.10;99.90
11284;DHT22;5698;47.332;11.180;2023-04-10T01:13:35;-1.10;99.90
11284;DHT22;5698;47.332;11.180;2023-04-10T01:16:07;-1.20;99.90
11284;DHT22;5698;47.332;11.180;2023-04-10T01:18:39;-1.20;99.90
11284;DHT22;5698;47.332;11.180;2023-04-10T01:21:07;-1.00;99.90
11284;DHT22;5698;47.332;11.180;2023-04-10T01:23:53;-1.10;99.90
11284;DHT22;5698;47.332;11.180;2023-04-10T01:26:38;-1.00;99.90
11284;DHT22;5698;47.332;11.180;2023-04-10T01:29:12;-1.10;99.90
11284;DHT22;5698;47.332;11.180;2023-04-10T01:31:43;-1.10;99.90
11284;DHT22;5698;47.332;11.180;2023-04-10T01:34:16;-1.20;99.90
11284;DHT22;5698;47.332;11.180;2023-04-10T01:36:48;-1.10;99.90
11284;DHT22;5698;47.332;11.180;2023-04-10T01:39:18;-1.00;99.90
11284;DHT22;5698;47.332;11.180;2023-04-10T01:41:47;-0.90;99.90
11284;DHT22;5698;47.332;11.180;2023-04-10T01:44:17;-0.90;99.90
11284;DHT22;5698;47.332;11.180;2023-04-10T01:46:47;-0.90;99.90
11284;DHT22;5698;47.332;11.180;2023-04-10T01:49:15;-1.00;99.90
11284;DHT22;5698;47.332;11.180;2023-04-10T01:51:43;-1.10;99.90
11284;DHT22;5698;47.332;11.180;2023-04-10T01:54:12;-1.10;99.90
11284;DHT22;5698;47.332;11.180;2023-04-10T01:56:39;-1.20;99.90
11284;DHT22;5698;47.332;11.180;2023-04-10T01:59:06;-1.10;99.90
11284;DHT22;5698;47.332;11.180;2023-04-10T02:01:35;-1.20;99.90
11284;DHT22;5698;47.332;11.180;2023-04-10T02:04:02;-1.10;99.90
11284;DHT22;5698;47.332;11.180;2023-04-10T02:06:36;-1.20;99.90
11284;DHT22;5698;47.332;11.180;2023-04-10T02:09:11;-1.10;99.90
11284;DHT22;5698;47.332;11.180;2023-04-10T02:11:46;-1.10;99.90
11284;DHT22;5698;47.332;11.180;2023-04-10T02:14:16;-1.10;99.90
11284;DHT22;5698;47.332;11.180;2023-04-10T02:16:45;-1.10;99.90
11284;DHT22;5698;47.332;11.180;2023-04-10T02:19:13;-1.10;99.90
11284;DHT22;5698;47.332;11.180;2023-04-10T02:21:40;-1.10;99.90
11284;DHT22;5698;47.332;11.180;2023-04-10T02:24:08;-1.10;99.90
11284;DHT22;5698;47.332;11.180;2023-04-10T02:26:45;-1.10;99.90
11284;DHT22;5698;47.332;11.180;2023-04-10T02:29:12;-1.10;99.90
11284;DHT22;5698;47.332;11.180;2023-04-10T02:31:40;-1.30;99.90
11284;DHT22;5698;47.332;11.180;2023-04-10T02:34:08;-1.40;99.90
11284;DHT22;5698;47.332;11.180;2023-04-10T02:36:36;-1.50;99.90
11284;DHT22;5698;47.332;11.180;2023-04-10T02:39:03;-1.50;99.90
11284;DHT22;5698;47.332;11.180;2023-04-10T02:41:31;-1.40;99.90
11284;DHT22;5698;47.332;11.180;2023-04-10T02:43:58;-1.50;99.90
11284;DHT22;5698;47.332;11.180;2023-04-10T02:46:25;-1.40;99.90
11284;DHT22;5698;47.332;11.180;2023-04-10T02:48:52;-1.60;99.90
11284;DHT22;5698;47.332;11.180;2023-04-10T02:51:20;-1.60;99.90
11284;DHT22;5698;47.332;11.180;2023-04-10T02:53:47;-1.60;99.90
11284;DHT22;5698;47.332;11.180;2023-04-10T02:56:15;-1.60;99.90
11284;DHT22;5698;47.332;11.180;2023-04-10T02:58:43;-1.60;99.90
11284;DHT22;5698;47.332;11.180;2023-04-10T03:01:12;-1.50;99.90
11284;DHT22;5698;47.332;11.180;2023-04-10T03:03:39;-1.60;99.90
11284;DHT22;5698;47.332;11.180;2023-04-10T03:06:07;-1.70;99.90
11284;DHT22;5698;47.332;11.180;2023-04-10T03:08:36;-1.70;99.90
11284;DHT22;5698;47.332;11.180;2023-04-10T03:11:03;-1.60;99.90
11284;DHT22;5698;47.332;11.180;2023-04-10T03:13:30;-1.70;99.90
11284;DHT22;5698;47.332;11.180;2023-04-10T03:15:57;-1.60;99.90
11284;DHT22;5698;47.332;11.180;2023-04-10T03:18:24;-1.60;99.90
11284;DHT22;5698;47.332;11.180;2023-04-10T03:20:51;-1.70;99.90
11284;DHT22;5698;47.332;11.180;2023-04-10T03:23:18;-1.80;99.90
11284;DHT22;5698;47.332;11.180;2023-04-10T03:25:50;-1.80;99.90
11284;DHT22;5698;47.332;11.180;2023-04-10T03:28:18;-1.80;99.90
11284;DHT22;5698;47.332;11.180;2023-04-10T03:30:45;-1.90;99.90
11284;DHT22;5698;47.332;11.180;2023-04-10T03:33:12;-1.90;99.90
11284;DHT22;5698;47.332;11.180;2023-04-10T03:35:39;-1.90;99.90
11284;DHT22;5698;47.332;11.180;2023-04-10T03:38:06;-2.00;99.90
11284;DHT22;5698;47.332;11.180;2023-04-10T03:40:33;-2.00;99.90
11284;DHT22;5698;47.332;11.180;2023-04-10T03:43:02;-1.80;99.90
11284;DHT22;5698;47.332;11.180;2023-04-10T03:45:29;-1.80;99.90
11284;DHT22;5698;47.332;11.180;2023-04-10T03:47:57;-1.80;99.90
11284;DHT22;5698;47.332;11.180;2023-04-10T03:50:24;-1.90;99.90
11284;DHT22;5698;47.332;11.180;2023-04-10T03:52:51;-1.80;99.90
11284;DHT22;5698;47.332;11.180;2023-04-10T03:55:18;-1.90;99.90
11284;DHT22;5698;47.332;11.180;2023-04-10T03:57:46;-2.00;99.90
11284;DHT22;5698;47.332;11.180;2023-04-10T04:00:15;-2.00;99.90
11284;DHT22;5698;47.332;11.180;2023-04-10T04:02:42;-2.00;99.90
11284;DHT22;5698;47.332;11.180;2023-04-10T04:05:09;-2.00;99.90
11284;DHT22;5698;47.332;11.180;2023-04-10T04:07:36;-1.90;99.90
11284;DHT22;5698;47.332;11.180;2023-04-10T04:10:04;-1.90;99.90
11284;DHT22;5698;47.332;11.180;2023-04-10T04:12:31;-1.90;99.90
11284;DHT22;5698;47.332;11.180;2023-04-10T04:14:58;-1.70;99.90
11284;DHT22;5698;47.332;11.180;2023-04-10T04:17:26;-1.70;99.90
11284;DHT22;5698;47.332;11.180;2023-04-10T04:19:53;-1.70;99.90
11284;DHT22;5698;47.332;11.180;2023-04-10T04:22:20;-1.50;99.90
11284;DHT22;5698;47.332;11.180;2023-04-10T04:24:47;-1.50;99.90
11284;DHT22;5698;47.332;11.180;2023-04-10T04:27:14;-1.50;99.90
11284;DHT22;5698;47.332;11.180;2023-04-10T04:29:41;-1.70;99.90
11284;DHT22;5698;47.332;11.180;2023-04-10T04:32:08;-1.80;99.90
11284;DHT22;5698;47.332;11.180;2023-04-10T04:34:36;-1.70;99.90
11284;DHT22;5698;47.332;11.180;2023-04-10T04:37:03;-1.70;99.90
11284;DHT22;5698;47.332;11.180;2023-04-10T04:39:30;-1.80;99.90
11284;DHT22;5698;47.332;11.180;2023-04-10T04:41:57;-1.80;99.90
11284;DHT22;5698;47.332;11.180;2023-04-10T04:44:24;-1.90;99.90
11284;DHT22;5698;47.332;11.180;2023-04-10T04:46:51;-1.90;99.90
11284;DHT22;5698;47.332;11.180;2023-04-10T04:49:18;-1.90;99.90
11284;DHT22;5698;47.332;11.180;2023-04-10T04:51:46;-1.90;99.90
11284;DHT22;5698;47.332;11.180;2023-04-10T04:54:13;-1.80;99.90
11284;DHT22;5698;47.332;11.180;2023-04-10T04:56:40;-1.80;99.90
11284;DHT22;5698;47.332;11.180;2023-04-10T04:59:07;-1.80;99.90
11284;DHT22;5698;47.332;11.180;2023-04-10T05:01:34;-1.90;99.90
11284;DHT22;5698;47.332;11.180;2023-04-10T05:04:01;-1.90;99.90
11284;DHT22;5698;47.332;11.180;2023-04-10T05:06:28;-1.70;99.90
11284;DHT22;5698;47.332;11.180;2023-04-10T05:08:57;-1.60;99.90
11284;DHT22;5698;47.332;11.180;2023-04-10T05:11:24;-1.50;99.90
11284;DHT22;5698;47.332;11.180;2023-04-10T05:13:51;-1.60;99.90
11284;DHT22;5698;47.332;11.180;2023-04-10T05:16:18;-1.70;99.90
11284;DHT22;5698;47.332;11.180;2023-04-10T05:18:45;-1.70;99.90
11284;DHT22;5698;47.332;11.180;2023-04-10T05:21:12;-1.70;99.90
11284;DHT22;5698;47.332;11.180;2023-04-10T05:23:40;-1.70;99.90
11284;DHT22;5698;47.332;11.180;2023-04-10T05:26:08;-1.80;99.90
11284;DHT22;5698;47.332;11.180;2023-04-10T05:28:35;-1.90;99.90
11284;DHT22;5698;47.332;11.180;2023-04-10T05:31:02;-1.90;99.90
11284;DHT22;5698;47.332;11.180;2023-04-10T05:33:29;-1.90;99.90
11284;DHT22;5698;47.332;11.180;2023-04-10T05:35:56;-1.90;99.90
11284;DHT22;5698;47.332;11.180;2023-04-10T05:38:23;-1.90;99.90
11284;DHT22;5698;47.332;11.180;2023-04-10T05:40:50;-1.90;99.90
11284;DHT22;5698;47.332;11.180;2023-04-10T05:43:18;-1.80;99.90
11284;DHT22;5698;47.332;11.180;2023-04-10T05:45:46;-1.70;99.90
11284;DHT22;5698;47.332;11.180;2023-04-10T05:48:13;-1.70;99.90
11284;DHT22;5698;47.332;11.180;2023-04-10T05:50:40;-1.70;99.90
11284;DHT22;5698;47.332;11.180;2023-04-10T05:53:11;-1.70;99.90
11284;DHT22;5698;47.332;11.180;2023-04-10T05:55:38;-1.60;99.90
11284;DHT22;5698;47.332;11.180;2023-04-10T05:58:05;-1.50;99.90
11284;DHT22;5698;47.332;11.180;2023-04-10T06:00:34;-1.10;99.90
11284;DHT22;5698;47.332;11.180;2023-04-10T06:03:01;-0.70;99.90
11284;DHT22;5698;47.332;11.180;2023-04-10T06:05:28;-0.20;99.90
11284;DHT22;5698;47.332;11.180;2023-04-10T06:07:55;0.10;99.90
11284;DHT22;5698;47.332;11.180;2023-04-10T06:10:22;0.50;99.90
11284;DHT22;5698;47.332;11.180;2023-04-10T06:12:49;0.70;99.90
11284;DHT22;5698;47.332;11.180;2023-04-10T06:15:16;0.80;99.90
11284;DHT22;5698;47.332;11.180;2023-04-10T06:17:44;0.80;99.90
11284;DHT22;5698;47.332;11.180;2023-04-10T06:20:12;0.80;99.90
11284;DHT22;5698;47.332;11.180;2023-04-10T06:22:38;0.90;99.90
11284;DHT22;5698;47.332;11.180;2023-04-10T06:25:06;1.00;99.90
11284;DHT22;5698;47.332;11.180;2023-04-10T06:27:33;1.10;99.90
11284;DHT22;5698;47.332;11.180;2023-04-10T06:30:01;1.30;99.90
11284;DHT22;5698;47.332;11.180;2023-04-10T06:32:28;1.50;99.90
11284;DHT22;5698;47.332;11.180;2023-04-10T06:34:56;1.50;99.90
11284;DHT22;5698;47.332;11.180;2023-04-10T06:37:27;1.70;99.90
11284;DHT22;5698;47.332;11.180;2023-04-10T06:40:02;1.60;99.90
11284;DHT22;5698;47.332;11.180;2023-04-10T06:42:29;1.70;99.90
11284;DHT22;5698;47.332;11.180;2023-04-10T06:44:56;1.70;99.90
11284;DHT22;5698;47.332;11.180;2023-04-10T06:47:24;1.80;99.90
11284;DHT22;5698;47.332;11.180;2023-04-10T06:49:51;2.00;99.90
11284;DHT22;5698;47.332;11.180;2023-04-10T06:52:19;2.10;99.90
11284;DHT22;5698;47.332;11.180;2023-04-10T06:54:46;2.30;99.90
11284;DHT22;5698;47.332;11.180;2023-04-10T06:57:13;2.40;99.90
11284;DHT22;5698;47.332;11.180;2023-04-10T06:59:40;2.60;99.90
11284;DHT22;5698;47.332;11.180;2023-04-10T07:02:07;2.80;99.90
11284;DHT22;5698;47.332;11.180;2023-04-10T07:04:34;3.00;99.90
11284;DHT22;5698;47.332;11.180;2023-04-10T07:07:01;3.10;99.90
11284;DHT22;5698;47.332;11.180;2023-04-10T07:09:31;3.40;99.90
11284;DHT22;5698;47.332;11.180;2023-04-10T07:11:58;3.60;99.90
11284;DHT22;5698;47.332;11.180;2023-04-10T07:14:25;3.70;99.90
11284;DHT22;5698;47.332;11.180;2023-04-10T07:16:52;3.80;99.90
11284;DHT22;5698;47.332;11.180;2023-04-10T07:19:19;3.90;99.90
11284;DHT22;5698;47.332;11.180;2023-04-10T07:21:46;3.90;99.90
11284;DHT22;5698;47.332;11.180;2023-04-10T07:24:14;4.10;99.90
11284;DHT22;5698;47.332;11.180;2023-04-10T07:26:43;4.20;99.90
11284;DHT22;5698;47.332;11.180;2023-04-10T07:29:11;4.20;99.90
11284;DHT22;5698;47.332;11.180;2023-04-10T07:31:38;4.40;99.90
11284;DHT22;5698;47.332;11.180;2023-04-10T07:34:05;4.60;99.90
11284;DHT22;5698;47.332;11.180;2023-04-10T07:36:32;4.60;99.90
11284;DHT22;5698;47.332;11.180;2023-04-10T07:39:00;4.60;99.90
11284;DHT22;5698;47.332;11.180;2023-04-10T07:41:27;4.50;99.90
11284;DHT22;5698;47.332;11.180;2023-04-10T07:43:55;4.70;99.90
11284;DHT22;5698;47.332;11.180;2023-04-10T07:46:22;4.70;99.90
11284;DHT22;5698;47.332;11.180;2023-04-10T07:48:49;4.90;99.90
11284;DHT22;5698;47.332;11.180;2023-04-10T07:51:16;5.10;99.90
11284;DHT22;5698;47.332;11.180;2023-04-10T07:53:43;5.40;99.90
11284;DHT22;5698;47.332;11.180;2023-04-10T07:56:15;5.40;99.80
11284;DHT22;5698;47.332;11.180;2023-04-10T07:58:43;5.60;99.90
11284;DHT22;5698;47.332;11.180;2023-04-10T08:01:11;5.70;99.70
11284;DHT22;5698;47.332;11.180;2023-04-10T08:03:39;5.90;99.90
11284;DHT22;5698;47.332;11.180;2023-04-10T08:06:07;6.10;98.30
11284;DHT22;5698;47.332;11.180;2023-04-10T08:08:35;6.20;98.80
11284;DHT22;5698;47.332;11.180;2023-04-10T08:11:06;5.80;98.20
11284;DHT22;5698;47.332;11.180;2023-04-10T08:13:33;5.90;98.00
11284;DHT22;5698;47.332;11.180;2023-04-10T08:16:00;6.30;99.00
11284;DHT22;5698;47.332;11.180;2023-04-10T08:18:29;6.60;97.90
11284;DHT22;5698;47.332;11.180;2023-04-10T08:20:56;6.80;96.80
11284;DHT22;5698;47.332;11.180;2023-04-10T08:23:23;7.00;95.20
11284;DHT22;5698;47.332;11.180;2023-04-10T08:25:50;7.20;94.90
11284;DHT22;5698;47.332;11.180;2023-04-10T08:28:17;7.40;90.40
11284;DHT22;5698;47.332;11.180;2023-04-10T08:30:45;7.50;91.20
11284;DHT22;5698;47.332;11.180;2023-04-10T08:33:12;7.50;88.70
11284;DHT22;5698;47.332;11.180;2023-04-10T08:35:41;7.50;85.30
11284;DHT22;5698;47.332;11.180;2023-04-10T08:38:08;7.60;84.90
11284;DHT22;5698;47.332;11.180;2023-04-10T08:40:36;7.60;83.40
11284;DHT22;5698;47.332;11.180;2023-04-10T08:43:04;7.80;78.00
11284;DHT22;5698;47.332;11.180;2023-04-10T08:45:31;8.00;80.70
11284;DHT22;5698;47.332;11.180;2023-04-10T08:48:01;8.00;80.30
11284;DHT22;5698;47.332;11.180;2023-04-10T08:50:32;8.00;76.10
11284;DHT22;5698;47.332;11.180;2023-04-10T08:53:13;8.40;78.20
11284;DHT22;5698;47.332;11.180;2023-04-10T08:55:40;8.50;77.60
11284;DHT22;5698;47.332;11.180;2023-04-10T08:58:08;8.80;78.70
11284;DHT22;5698;47.332;11.180;2023-04-10T09:00:38;8.60;76.80
11284;DHT22;5698;47.332;11.180;2023-04-10T09:03:08;8.60;75.50
11284;DHT22;5698;47.332;11.180;2023-04-10T09:05:36;8.40;77.90
11284;DHT22;5698;47.332;11.180;2023-04-10T09:08:06;8.50;75.10
11284;DHT22;5698;47.332;11.180;2023-04-10T09:10:33;8.50;77.60
11284;DHT22;5698;47.332;11.180;2023-04-10T09:13:00;8.70;76.80
11284;DHT22;5698;47.332;11.180;2023-04-10T09:15:27;9.00;77.80
11284;DHT22;5698;47.332;11.180;2023-04-10T09:17:56;9.20;78.00
11284;DHT22;5698;47.332;11.180;2023-04-10T09:20:24;9.20;76.60
11284;DHT22;5698;47.332;11.180;2023-04-10T09:22:52;9.30;73.60
11284;DHT22;5698;47.332;11.180;2023-04-10T09:25:30;9.10;71.60
11284;DHT22;5698;47.332;11.180;2023-04-10T09:28:04;9.10;72.80
11284;DHT22;5698;47.332;11.180;2023-04-10T09:30:33;9.30;69.70
11284;DHT22;5698;47.332;11.180;2023-04-10T09:33:00;9.30;71.40
11284;DHT22;5698;47.332;11.180;2023-04-10T09:35:35;9.30;68.80
11284;DHT22;5698;47.332;11.180;2023-04-10T09:38:15;9.60;68.40
11284;DHT22;5698;47.332;11.180;2023-04-10T09:40:45;10.00;65.70
11284;DHT22;5698;47.332;11.180;2023-04-10T09:43:19;10.10;64.30
11284;DHT22;5698;47.332;11.180;2023-04-10T09:45:48;10.10;66.20
11284;DHT22;5698;47.332;11.180;2023-04-10T09:48:16;10.30;65.80
11284;DHT22;5698;47.332;11.180;2023-04-10T09:50:43;10.40;65.90
11284;DHT22;5698;47.332;11.180;2023-04-10T09:53:12;10.50;64.80
11284;DHT22;5698;47.332;11.180;2023-04-10T09:55:40;10.70;65.00
11284;DHT22;5698;47.332;11.180;2023-04-10T09:58:10;10.60;64.30
11284;DHT22;5698;47.332;11.180;2023-04-10T10:00:42;10.70;64.00
11284;DHT22;5698;47.332;11.180;2023-04-10T10:03:12;10.90;64.50
11284;DHT22;5698;47.332;11.180;2023-04-10T10:05:40;10.80;62.90
11284;DHT22;5698;47.332;11.180;2023-04-10T10:08:09;10.70;63.10
11284;DHT22;5698;47.332;11.180;2023-04-10T10:10:39;10.50;61.60
11284;DHT22;5698;47.332;11.180;2023-04-10T10:13:14;10.40;63.50
11284;DHT22;5698;47.332;11.180;2023-04-10T10:15:48;10.40;62.80
11284;DHT22;5698;47.332;11.180;2023-04-10T10:18:21;10.20;65.00
11284;DHT22;5698;47.332;11.180;2023-04-10T10:20:52;10.50;64.10
11284;DHT22;5698;47.332;11.180;2023-04-10T10:23:21;10.50;63.40
11284;DHT22;5698;47.332;11.180;2023-04-10T10:25:49;10.60;64.00
11284;DHT22;5698;47.332;11.180;2023-04-10T10:28:19;10.90;61.70
11284;DHT22;5698;47.332;11.180;2023-04-10T10:30:47;10.30;60.50
11284;DHT22;5698;47.332;11.180;2023-04-10T10:33:14;10.50;60.50
11284;DHT22;5698;47.332;11.180;2023-04-10T10:35:42;10.70;58.40
11284;DHT22;5698;47.332;11.180;2023-04-10T10:38:09;10.80;59.00
11284;DHT22;5698;47.332;11.180;2023-04-10T10:40:41;10.70;61.00
11284;DHT22;5698;47.332;11.180;2023-04-10T10:43:15;11.00;59.60
11284;DHT22;5698;47.332;11.180;2023-04-10T10:45:51;11.00;61.00
11284;DHT22;5698;47.332;11.180;2023-04-10T10:48:18;11.10;58.90
11284;DHT22;5698;47.332;11.180;2023-04-10T10:50:55;10.70;59.50
11284;DHT22;5698;47.332;11.180;2023-04-10T10:53:31;11.30;60.00
11284;DHT22;5698;47.332;11.180;2023-04-10T10:55:58;11.30;60.10
11284;DHT22;5698;47.332;11.180;2023-04-10T10:58:46;11.80;58.50
11284;DHT22;5698;47.332;11.180;2023-04-10T11:01:15;11.90;57.80
11284;DHT22;5698;47.332;11.180;2023-04-10T11:03:42;12.10;57.30
11284;DHT22;5698;47.332;11.180;2023-04-10T11:06:11;12.10;56.00
11284;DHT22;5698;47.332;11.180;2023-04-10T11:08:40;12.00;56.60
11284;DHT22;5698;47.332;11.180;2023-04-10T11:11:13;12.30;56.10
11284;DHT22;5698;47.332;11.180;2023-04-10T11:16:44;12.50;55.40
11284;DHT22;5698;47.332;11.180;2023-04-10T11:19:11;12.60;55.20
11284;DHT22;5698;47.332;11.180;2023-04-10T11:22:05;12.70;55.10
11284;DHT22;5698;47.332;11.180;2023-04-10T11:24:54;12.70;53.30
11284;DHT22;5698;47.332;11.180;2023-04-10T11:27:41;12.40;53.80
11284;DHT22;5698;47.332;11.180;2023-04-10T11:30:27;12.50;53.90
11284;DHT22;5698;47.332;11.180;2023-04-10T11:32:56;12.90;52.30
11284;DHT22;5698;47.332;11.180;2023-04-10T11:35:24;13.10;50.90
11284;DHT22;5698;47.332;11.180;2023-04-10T11:38:00;13.00;50.40
11284;DHT22;5698;47.332;11.180;2023-04-10T11:40:33;13.00;50.30
11284;DHT22;5698;47.332;11.180;2023-04-10T11:43:11;12.70;51.60
11284;DHT22;5698;47.332;11.180;2023-04-10T11:45:38;12.90;49.00
11284;DHT22;5698;47.332;11.180;2023-04-10T11:48:07;13.20;48.50
11284;DHT22;5698;47.332;11.180;2023-04-10T11:50:35;13.40;48.10
11284;DHT22;5698;47.332;11.180;2023-04-10T11:53:16;13.40;46.70
11284;DHT22;5698;47.332;11.180;2023-04-10T11:55:44;13.50;45.20
11284;DHT22;5698;47.332;11.180;2023-04-10T11:58:21;13.40;45.60
11284;DHT22;5698;47.332;11.180;2023-04-10T12:00:55;13.40;46.10
11284;DHT22;5698;47.332;11.180;2023-04-10T12:03:35;13.50;46.00
11284;DHT22;5698;47.332;11.180;2023-04-10T12:06:04;13.50;44.80
11284;DHT22;5698;47.332;11.180;2023-04-10T12:08:32;13.40;44.30
11284;DHT22;5698;47.332;11.180;2023-04-10T12:11:00;13.50;44.90
11284;DHT22;5698;47.332;11.180;2023-04-10T12:13:28;13.30;43.80
11284;DHT22;5698;47.332;11.180;2023-04-10T12:15:58;13.20;44.70
11284;DHT22;5698;47.332;11.180;2023-04-10T12:18:26;13.40;41.20
11284;DHT22;5698;47.332;11.180;2023-04-10T12:20:55;13.10;43.00
11284;DHT22;5698;47.332;11.180;2023-04-10T12:23:24;13.30;44.10
11284;DHT22;5698;47.332;11.180;2023-04-10T12:25:52;13.40;43.60
11284;DHT22;5698;47.332;11.180;2023-04-10T12:28:20;13.50;43.70
11284;DHT22;5698;47.332;11.180;2023-04-10T12:30:48;13.70;43.90
11284;DHT22;5698;47.332;11.180;2023-04-10T12:33:21;13.90;42.60
11284;DHT22;5698;47.332;11.180;2023-04-10T12:35:48;13.70;43.40
11284;DHT22;5698;47.332;11.180;2023-04-10T12:38:34;13.90;42.20
11284;DHT22;5698;47.332;11.180;2023-04-10T12:41:01;14.40;42.70
11284;DHT22;5698;47.332;11.180;2023-04-10T12:43:30;14.20;41.90
11284;DHT22;5698;47.332;11.180;2023-04-10T12:45:57;14.30;41.40
11284;DHT22;5698;47.332;11.180;2023-04-10T12:48:24;14.30;40.50
11284;DHT22;5698;47.332;11.180;2023-04-10T12:50:51;14.10;40.40
11284;DHT22;5698;47.332;11.180;2023-04-10T12:53:20;14.30;41.80
11284;DHT22;5698;47.332;11.180;2023-04-10T12:55:58;14.30;40.80
11284;DHT22;5698;47.332;11.180;2023-04-10T12:58:25;14.50;40.70
11284;DHT22;5698;47.332;11.180;2023-04-10T13:00:54;14.50;40.70
11284;DHT22;5698;47.332;11.180;2023-04-10T13:03:21;14.70;40.30
11284;DHT22;5698;47.332;11.180;2023-04-10T13:05:48;14.70;40.50
11284;DHT22;5698;47.332;11.180;2023-04-10T13:08:16;14.70;39.90
11284;DHT22;5698;47.332;11.180;2023-04-10T13:10:44;14.80;42.20
11284;DHT22;5698;47.332;11.180;2023-04-10T13:13:12;14.40;39.00
11284;DHT22;5698;47.332;11.180;2023-04-10T13:15:39;14.30;40.30
11284;DHT22;5698;47.332;11.180;2023-04-10T13:18:06;14.10;40.20
11284;DHT22;5698;47.332;11.180;2023-04-10T13:20:35;14.30;41.30
11284;DHT22;5698;47.332;11.180;2023-04-10T13:23:02;14.40;43.60
11284;DHT22;5698;47.332;11.180;2023-04-10T13:25:33;14.50;41.20
11284;DHT22;5698;47.332;11.180;2023-04-10T13:28:01;14.80;42.00
11284;DHT22;5698;47.332;11.180;2023-04-10T13:30:35;14.90;39.60
11284;DHT22;5698;47.332;11.180;2023-04-10T13:33:02;15.10;40.40
11284;DHT22;5698;47.332;11.180;2023-04-10T13:35:30;15.00;40.00
11284;DHT22;5698;47.332;11.180;2023-04-10T13:37:57;14.90;39.60
11284;DHT22;5698;47.332;11.180;2023-04-10T13:40:24;14.90;40.00
11284;DHT22;5698;47.332;11.180;2023-04-10T13:42:51;15.00;39.60
11284;DHT22;5698;47.332;11.180;2023-04-10T13:45:19;14.10;37.90
11284;DHT22;5698;47.332;11.180;2023-04-10T13:47:47;14.00;39.60
11284;DHT22;5698;47.332;11.180;2023-04-10T13:50:14;14.40;40.60
11284;DHT22;5698;47.332;11.180;2023-04-10T13:52:40;14.60;38.30
11284;DHT22;5698;47.332;11.180;2023-04-10T13:55:08;14.80;39.60
11284;DHT22;5698;47.332;11.180;2023-04-10T13:57:35;14.90;37.50
11284;DHT22;5698;47.332;11.180;2023-04-10T14:00:03;14.90;37.60
11284;DHT22;5698;47.332;11.180;2023-04-10T14:02:31;14.90;37.20
11284;DHT22;5698;47.332;11.180;2023-04-10T14:04:59;14.90;37.20
11284;DHT22;5698;47.332;11.180;2023-04-10T14:07:26;14.80;37.30
11284;DHT22;5698;47.332;11.180;2023-04-10T14:09:53;15.00;38.20
11284;DHT22;5698;47.332;11.180;2023-04-10T14:12:21;15.00;38.20
11284;DHT22;5698;47.332;11.180;2023-04-10T14:14:48;14.80;37.00
11284;DHT22;5698;47.332;11.180;2023-04-10T14:17:15;14.70;37.50
11284;DHT22;5698;47.332;11.180;2023-04-10T14:19:44;14.50;37.70
11284;DHT22;5698;47.332;11.180;2023-04-10T14:22:13;14.50;37.90
11284;DHT22;5698;47.332;11.180;2023-04-10T14:24:40;14.40;38.40
11284;DHT22;5698;47.332;11.180;2023-04-10T14:27:07;14.50;37.70
11284;DHT22;5698;47.332;11.180;2023-04-10T14:29:34;14.40;38.70
11284;DHT22;5698;47.332;11.180;2023-04-10T14:32:01;14.30;39.40
11284;DHT22;5698;47.332;11.180;2023-04-10T14:34:28;14.00;38.90
11284;DHT22;5698;47.332;11.180;2023-04-10T14:36:56;13.70;39.70
11284;DHT22;5698;47.332;11.180;2023-04-10T14:39:24;13.50;40.00
11284;DHT22;5698;47.332;11.180;2023-04-10T14:41:51;13.30;41.30
11284;DHT22;5698;47.332;11.180;2023-04-10T14:44:18;13.20;42.70
11284;DHT22;5698;47.332;11.180;2023-04-10T14:46:45;12.90;42.60
11284;DHT22;5698;47.332;11.180;2023-04-10T14:49:12;12.80;42.30
11284;DHT22;5698;47.332;11.180;2023-04-10T14:51:42;12.70;43.60
11284;DHT22;5698;47.332;11.180;2023-04-10T14:54:11;12.60;42.20
11284;DHT22;5698;47.332;11.180;2023-04-10T14:56:38;12.50;39.20
11284;DHT22;5698;47.332;11.180;2023-04-10T14:59:05;12.30;43.90
11284;DHT22;5698;47.332;11.180;2023-04-10T15:01:33;12.40;43.70
11284;DHT22;5698;47.332;11.180;2023-04-10T15:04:00;12.30;43.80
11284;DHT22;5698;47.332;11.180;2023-04-10T15:06:27;12.20;46.50
11284;DHT22;5698;47.332;11.180;2023-04-10T15:08:57;12.20;47.20
11284;DHT22;5698;47.332;11.180;2023-04-10T15:11:25;12.10;47.10
11284;DHT22;5698;47.332;11.180;2023-04-10T15:13:52;12.10;45.80
11284;DHT22;5698;47.332;11.180;2023-04-10T15:16:19;12.00;45.20
11284;DHT22;5698;47.332;11.180;2023-04-10T15:18:46;12.00;46.50
11284;DHT22;5698;47.332;11.180;2023-04-10T15:21:14;11.90;47.70
11284;DHT22;5698;47.332;11.180;2023-04-10T15:23:41;11.70;50.00
11284;DHT22;5698;47.332;11.180;2023-04-10T15:26:10;11.60;46.80
11284;DHT22;5698;47.332;11.180;2023-04-10T15:28:39;11.60;49.00
11284;DHT22;5698;47.332;11.180;2023-04-10T15:31:08;11.50;47.50
11284;DHT22;5698;47.332;11.180;2023-04-10T15:33:35;11.50;47.50
11284;DHT22;5698;47.332;11.180;2023-04-10T15:36:02;11.40;48.60
11284;DHT22;5698;47.332;11.180;2023-04-10T15:38:31;11.40;49.10
11284;DHT22;5698;47.332;11.180;2023-04-10T15:40:58;11.40;49.00
11284;DHT22;5698;47.332;11.180;2023-04-10T15:43:25;11.30;50.20
11284;DHT22;5698;47.332;11.180;2023-04-10T15:45:53;11.30;49.40
11284;DHT22;5698;47.332;11.180;2023-04-10T15:48:23;11.30;48.90